Forside
METAR-TAF:

METAR-TAF

Lufthavne :

Hanoi, Vietnam

Breddekreds: 21-01N, længdekreds: 105-48E, højde: 6 m

Aktuelle vejr

Denne rapport blev lavet for 40 minutter siden, kl. 16:30 UTC
Vind 8 kt fra østnordøst, varierende mellem nordnordøst og øst
Temperatur 26°C
Fugtighed 100%
Tryk 1005 hPa
Sigt 10 km eller mere
Nogle få skyer i en højde af 3000 ft, Optårnet Cumulus.

METAR: VVNB 251630Z 06008KT 020V080 9999 FEW030TCU 26/26 Q1005 NOSIG

Tid: 00:10 (17:10 UTC)

Vejrudsigter

Denne rapport blev lavet for 6 timer og 10 minutter siden, kl. 11:00 UTC
Foreløbig gælder fra 25 på 12 UTC til 26 på 12 UTC
Vind 8 kt fra østsydøst
Sigt 10 km eller mere
Nogle få skyer i en højde af 2000 ft
Midlertidig
fra 25 på 12 UTC til 25 på 15 UTC
Vind 15 kt fra vestsydvest med vindstød på up til 25 kt
Sigt: 4000 m
Brudte skyer i en højde af 1200 ft
Nogle få skyer i en højde af 2700 ft, Cumulonimbus.
tordenbyger, regn

TAF: VVNB 251100Z 2512/2612 12008KT 9999 FEW020 TEMPO 2512/2515 24015G25KT 4000 TSRA BKN012 FEW027CB

Vejrobservationer og prognoser fra mere end 4000 lufthavne (METAR og TAF).

De gule og røde prikker repræsenterer de meteorologiske stationer.

Flyt musen over at se navnet på stationen.

Så klik over at se vejr observationer og prognoser.

At skifte det kort: Klik på de grønne knapper med et sort kors for at zoome ind; på den grønne knap med en bindestreg for at zoome ud; eller på de grønne pile for tilstødende kort.


METAR-TAF: